sensor_id;sensor_type;location;lat;lon;timestamp;temperature;humidity
20481;DHT22;10399;50.754;3.366;2022-08-25T00:00:25;24.50;99.90
20481;DHT22;10399;50.754;3.366;2022-08-25T00:02:54;24.50;99.90
20481;DHT22;10399;50.754;3.366;2022-08-25T00:05:25;24.50;99.90
20481;DHT22;10399;50.754;3.366;2022-08-25T00:07:55;24.40;99.90
20481;DHT22;10399;50.754;3.366;2022-08-25T00:10:23;24.50;99.90
20481;DHT22;10399;50.754;3.366;2022-08-25T00:12:50;24.60;99.90
20481;DHT22;10399;50.754;3.366;2022-08-25T00:15:17;24.40;99.90
20481;DHT22;10399;50.754;3.366;2022-08-25T00:17:44;24.40;99.90
20481;DHT22;10399;50.754;3.366;2022-08-25T00:20:11;24.40;99.90
20481;DHT22;10399;50.754;3.366;2022-08-25T00:22:38;24.40;99.90
20481;DHT22;10399;50.754;3.366;2022-08-25T00:25:05;24.40;99.90
20481;DHT22;10399;50.754;3.366;2022-08-25T00:27:34;24.40;99.90
20481;DHT22;10399;50.754;3.366;2022-08-25T00:30:01;24.40;99.90
20481;DHT22;10399;50.754;3.366;2022-08-25T00:32:28;24.30;99.90
20481;DHT22;10399;50.754;3.366;2022-08-25T00:34:56;24.30;99.90
20481;DHT22;10399;50.754;3.366;2022-08-25T00:37:23;24.20;99.90
20481;DHT22;10399;50.754;3.366;2022-08-25T00:39:50;24.20;99.90
20481;DHT22;10399;50.754;3.366;2022-08-25T00:42:18;24.40;99.90
20481;DHT22;10399;50.754;3.366;2022-08-25T00:44:46;24.40;99.90
20481;DHT22;10399;50.754;3.366;2022-08-25T00:47:13;24.50;99.90
20481;DHT22;10399;50.754;3.366;2022-08-25T00:49:48;24.40;99.90
20481;DHT22;10399;50.754;3.366;2022-08-25T00:52:23;24.30;99.90
20481;DHT22;10399;50.754;3.366;2022-08-25T00:58:02;24.20;99.90
20481;DHT22;10399;50.754;3.366;2022-08-25T01:00:35;24.20;99.90
20481;DHT22;10399;50.754;3.366;2022-08-25T01:03:04;24.20;99.90
20481;DHT22;10399;50.754;3.366;2022-08-25T01:05:32;24.10;99.90
20481;DHT22;10399;50.754;3.366;2022-08-25T01:08:00;24.10;99.90
20481;DHT22;10399;50.754;3.366;2022-08-25T01:10:34;24.10;99.90
20481;DHT22;10399;50.754;3.366;2022-08-25T01:13:12;24.10;99.90
20481;DHT22;10399;50.754;3.366;2022-08-25T01:15:43;24.00;99.90
20481;DHT22;10399;50.754;3.366;2022-08-25T01:18:11;24.00;99.90
20481;DHT22;10399;50.754;3.366;2022-08-25T01:20:38;24.00;99.90
20481;DHT22;10399;50.754;3.366;2022-08-25T01:23:05;24.10;99.90
20481;DHT22;10399;50.754;3.366;2022-08-25T01:28:05;24.00;99.90
20481;DHT22;10399;50.754;3.366;2022-08-25T01:30:33;23.90;99.90
20481;DHT22;10399;50.754;3.366;2022-08-25T01:33:08;23.80;99.90
20481;DHT22;10399;50.754;3.366;2022-08-25T01:35:36;23.80;99.90
20481;DHT22;10399;50.754;3.366;2022-08-25T01:38:06;23.80;99.90
20481;DHT22;10399;50.754;3.366;2022-08-25T01:40:36;23.80;99.90
20481;DHT22;10399;50.754;3.366;2022-08-25T01:45:44;23.70;99.90
20481;DHT22;10399;50.754;3.366;2022-08-25T01:48:12;23.90;99.90
20481;DHT22;10399;50.754;3.366;2022-08-25T01:50:42;23.70;99.90
20481;DHT22;10399;50.754;3.366;2022-08-25T01:53:23;23.70;99.90
20481;DHT22;10399;50.754;3.366;2022-08-25T01:55:53;23.60;99.90
20481;DHT22;10399;50.754;3.366;2022-08-25T01:58:35;23.60;99.90
20481;DHT22;10399;50.754;3.366;2022-08-25T02:01:06;23.50;99.90
20481;DHT22;10399;50.754;3.366;2022-08-25T02:03:37;23.50;99.90
20481;DHT22;10399;50.754;3.366;2022-08-25T02:06:10;23.50;99.90
20481;DHT22;10399;50.754;3.366;2022-08-25T02:08:38;23.40;99.90
20481;DHT22;10399;50.754;3.366;2022-08-25T02:11:10;23.30;99.90
20481;DHT22;10399;50.754;3.366;2022-08-25T02:13:39;23.40;99.90
20481;DHT22;10399;50.754;3.366;2022-08-25T02:16:08;23.30;99.90
20481;DHT22;10399;50.754;3.366;2022-08-25T02:18:36;23.30;99.90
20481;DHT22;10399;50.754;3.366;2022-08-25T02:21:03;23.30;99.90
20481;DHT22;10399;50.754;3.366;2022-08-25T02:23:30;23.30;99.90
20481;DHT22;10399;50.754;3.366;2022-08-25T02:25:57;23.30;99.90
20481;DHT22;10399;50.754;3.366;2022-08-25T02:28:25;23.30;99.90
20481;DHT22;10399;50.754;3.366;2022-08-25T02:30:52;23.30;99.90
20481;DHT22;10399;50.754;3.366;2022-08-25T02:33:27;23.20;99.90
20481;DHT22;10399;50.754;3.366;2022-08-25T02:35:57;23.30;99.90
20481;DHT22;10399;50.754;3.366;2022-08-25T02:38:26;23.20;99.90
20481;DHT22;10399;50.754;3.366;2022-08-25T02:40:55;23.10;99.90
20481;DHT22;10399;50.754;3.366;2022-08-25T02:43:23;23.00;99.90
20481;DHT22;10399;50.754;3.366;2022-08-25T02:45:54;23.10;99.90
20481;DHT22;10399;50.754;3.366;2022-08-25T02:48:22;23.20;99.90
20481;DHT22;10399;50.754;3.366;2022-08-25T02:50:50;23.00;99.90
20481;DHT22;10399;50.754;3.366;2022-08-25T02:53:19;23.00;99.90
20481;DHT22;10399;50.754;3.366;2022-08-25T02:55:46;23.00;99.90
20481;DHT22;10399;50.754;3.366;2022-08-25T02:58:14;23.00;99.90
20481;DHT22;10399;50.754;3.366;2022-08-25T03:00:41;23.10;99.90
20481;DHT22;10399;50.754;3.366;2022-08-25T03:03:09;23.10;99.90
20481;DHT22;10399;50.754;3.366;2022-08-25T03:05:36;23.10;99.90
20481;DHT22;10399;50.754;3.366;2022-08-25T03:08:05;23.10;99.90
20481;DHT22;10399;50.754;3.366;2022-08-25T03:10:33;23.10;99.90
20481;DHT22;10399;50.754;3.366;2022-08-25T03:13:00;23.00;99.90
20481;DHT22;10399;50.754;3.366;2022-08-25T03:15:28;23.00;99.90
20481;DHT22;10399;50.754;3.366;2022-08-25T03:17:56;23.00;99.90
20481;DHT22;10399;50.754;3.366;2022-08-25T03:20:26;23.00;99.90
20481;DHT22;10399;50.754;3.366;2022-08-25T03:22:54;22.90;99.90
20481;DHT22;10399;50.754;3.366;2022-08-25T03:25:22;22.90;99.90
20481;DHT22;10399;50.754;3.366;2022-08-25T03:28:08;22.90;99.90
20481;DHT22;10399;50.754;3.366;2022-08-25T03:30:37;22.90;99.90
20481;DHT22;10399;50.754;3.366;2022-08-25T03:33:06;22.90;99.90
20481;DHT22;10399;50.754;3.366;2022-08-25T03:35:33;22.80;99.90
20481;DHT22;10399;50.754;3.366;2022-08-25T03:38:00;22.70;99.90
20481;DHT22;10399;50.754;3.366;2022-08-25T03:40:28;22.70;99.90
20481;DHT22;10399;50.754;3.366;2022-08-25T03:42:56;22.60;99.90
20481;DHT22;10399;50.754;3.366;2022-08-25T03:45:24;22.60;99.90
20481;DHT22;10399;50.754;3.366;2022-08-25T03:47:54;22.60;99.90
20481;DHT22;10399;50.754;3.366;2022-08-25T03:50:25;22.60;99.90
20481;DHT22;10399;50.754;3.366;2022-08-25T03:52:55;22.60;99.90
20481;DHT22;10399;50.754;3.366;2022-08-25T03:55:24;22.50;99.90
20481;DHT22;10399;50.754;3.366;2022-08-25T03:57:52;22.50;99.90
20481;DHT22;10399;50.754;3.366;2022-08-25T04:00:21;22.50;99.90
20481;DHT22;10399;50.754;3.366;2022-08-25T04:02:48;22.50;99.90
20481;DHT22;10399;50.754;3.366;2022-08-25T04:05:15;22.50;99.90
20481;DHT22;10399;50.754;3.366;2022-08-25T04:07:43;22.50;99.90
20481;DHT22;10399;50.754;3.366;2022-08-25T04:10:10;22.60;99.90
20481;DHT22;10399;50.754;3.366;2022-08-25T04:12:38;22.60;99.90
20481;DHT22;10399;50.754;3.366;2022-08-25T04:15:07;22.60;99.90
20481;DHT22;10399;50.754;3.366;2022-08-25T04:17:37;22.50;99.90
20481;DHT22;10399;50.754;3.366;2022-08-25T04:20:06;22.40;99.90
20481;DHT22;10399;50.754;3.366;2022-08-25T04:22:35;22.30;99.90
20481;DHT22;10399;50.754;3.366;2022-08-25T04:25:04;22.40;99.90
20481;DHT22;10399;50.754;3.366;2022-08-25T04:27:31;22.40;99.90
20481;DHT22;10399;50.754;3.366;2022-08-25T04:29:58;22.30;99.90
20481;DHT22;10399;50.754;3.366;2022-08-25T04:32:25;22.40;99.90
20481;DHT22;10399;50.754;3.366;2022-08-25T04:34:53;22.40;99.90
20481;DHT22;10399;50.754;3.366;2022-08-25T04:37:21;22.30;99.90
20481;DHT22;10399;50.754;3.366;2022-08-25T04:39:48;22.40;99.90
20481;DHT22;10399;50.754;3.366;2022-08-25T04:42:16;22.50;99.90
20481;DHT22;10399;50.754;3.366;2022-08-25T04:44:43;22.40;99.90
20481;DHT22;10399;50.754;3.366;2022-08-25T04:47:10;22.30;99.90
20481;DHT22;10399;50.754;3.366;2022-08-25T04:49:38;22.30;99.90
20481;DHT22;10399;50.754;3.366;2022-08-25T04:52:06;22.30;99.90
20481;DHT22;10399;50.754;3.366;2022-08-25T04:54:40;22.30;99.90
20481;DHT22;10399;50.754;3.366;2022-08-25T04:57:07;22.40;99.90
20481;DHT22;10399;50.754;3.366;2022-08-25T04:59:34;22.40;99.90
20481;DHT22;10399;50.754;3.366;2022-08-25T05:02:02;22.40;99.90
20481;DHT22;10399;50.754;3.366;2022-08-25T05:04:33;22.40;99.90
20481;DHT22;10399;50.754;3.366;2022-08-25T05:07:01;22.50;99.90
20481;DHT22;10399;50.754;3.366;2022-08-25T05:09:29;22.50;99.90
20481;DHT22;10399;50.754;3.366;2022-08-25T05:12:01;22.50;99.90
20481;DHT22;10399;50.754;3.366;2022-08-25T05:14:30;22.50;99.90
20481;DHT22;10399;50.754;3.366;2022-08-25T05:16:58;22.50;99.90
20481;DHT22;10399;50.754;3.366;2022-08-25T05:19:26;22.60;99.90
20481;DHT22;10399;50.754;3.366;2022-08-25T05:21:53;22.60;99.90
20481;DHT22;10399;50.754;3.366;2022-08-25T05:24:23;22.60;99.90
20481;DHT22;10399;50.754;3.366;2022-08-25T05:26:50;22.70;99.90
20481;DHT22;10399;50.754;3.366;2022-08-25T05:29:17;22.70;99.90
20481;DHT22;10399;50.754;3.366;2022-08-25T05:31:45;22.70;99.90
20481;DHT22;10399;50.754;3.366;2022-08-25T05:34:17;22.70;99.90
20481;DHT22;10399;50.754;3.366;2022-08-25T05:36:46;22.70;99.90
20481;DHT22;10399;50.754;3.366;2022-08-25T05:39:14;22.80;99.90
20481;DHT22;10399;50.754;3.366;2022-08-25T05:41:41;22.80;99.90
20481;DHT22;10399;50.754;3.366;2022-08-25T05:44:09;22.90;99.90
20481;DHT22;10399;50.754;3.366;2022-08-25T05:46:37;23.00;99.90
20481;DHT22;10399;50.754;3.366;2022-08-25T05:49:04;23.00;99.90
20481;DHT22;10399;50.754;3.366;2022-08-25T05:51:32;23.10;99.90
20481;DHT22;10399;50.754;3.366;2022-08-25T05:53:59;23.00;99.90
20481;DHT22;10399;50.754;3.366;2022-08-25T05:56:26;23.10;99.90
20481;DHT22;10399;50.754;3.366;2022-08-25T05:58:53;23.10;99.90
20481;DHT22;10399;50.754;3.366;2022-08-25T06:01:27;23.30;99.90
20481;DHT22;10399;50.754;3.366;2022-08-25T06:04:15;23.30;99.90
20481;DHT22;10399;50.754;3.366;2022-08-25T06:06:43;23.30;99.90
20481;DHT22;10399;50.754;3.366;2022-08-25T06:09:10;23.30;99.90
20481;DHT22;10399;50.754;3.366;2022-08-25T06:11:38;23.40;99.90
20481;DHT22;10399;50.754;3.366;2022-08-25T06:14:07;23.50;99.90
20481;DHT22;10399;50.754;3.366;2022-08-25T06:16:35;23.50;99.90
20481;DHT22;10399;50.754;3.366;2022-08-25T06:19:02;23.50;99.90
20481;DHT22;10399;50.754;3.366;2022-08-25T06:21:30;23.50;99.90
20481;DHT22;10399;50.754;3.366;2022-08-25T06:23:57;23.50;99.90
20481;DHT22;10399;50.754;3.366;2022-08-25T06:26:24;23.50;99.90
20481;DHT22;10399;50.754;3.366;2022-08-25T06:28:52;23.50;99.90
20481;DHT22;10399;50.754;3.366;2022-08-25T06:31:20;23.50;99.90
20481;DHT22;10399;50.754;3.366;2022-08-25T06:33:49;23.50;99.90
20481;DHT22;10399;50.754;3.366;2022-08-25T06:36:16;23.50;99.90
20481;DHT22;10399;50.754;3.366;2022-08-25T06:38:46;23.60;99.90
20481;DHT22;10399;50.754;3.366;2022-08-25T06:41:13;23.60;99.90
20481;DHT22;10399;50.754;3.366;2022-08-25T06:43:42;23.70;99.90
20481;DHT22;10399;50.754;3.366;2022-08-25T06:46:18;23.80;99.90
20481;DHT22;10399;50.754;3.366;2022-08-25T06:48:45;23.90;99.90
20481;DHT22;10399;50.754;3.366;2022-08-25T06:51:17;23.90;99.90
20481;DHT22;10399;50.754;3.366;2022-08-25T06:53:45;24.10;99.90
20481;DHT22;10399;50.754;3.366;2022-08-25T06:56:14;24.10;99.90
20481;DHT22;10399;50.754;3.366;2022-08-25T06:58:42;24.20;99.90
20481;DHT22;10399;50.754;3.366;2022-08-25T07:01:15;24.40;99.90
20481;DHT22;10399;50.754;3.366;2022-08-25T07:03:46;24.40;99.90
20481;DHT22;10399;50.754;3.366;2022-08-25T07:06:15;24.40;99.90
20481;DHT22;10399;50.754;3.366;2022-08-25T07:08:45;24.60;99.90
20481;DHT22;10399;50.754;3.366;2022-08-25T07:11:14;24.80;99.90
20481;DHT22;10399;50.754;3.366;2022-08-25T07:13:44;25.00;99.90
20481;DHT22;10399;50.754;3.366;2022-08-25T07:16:12;25.10;99.90
20481;DHT22;10399;50.754;3.366;2022-08-25T07:18:42;25.20;99.90
20481;DHT22;10399;50.754;3.366;2022-08-25T07:21:11;25.30;99.90
20481;DHT22;10399;50.754;3.366;2022-08-25T07:23:40;25.40;99.90
20481;DHT22;10399;50.754;3.366;2022-08-25T07:26:10;25.50;99.90
20481;DHT22;10399;50.754;3.366;2022-08-25T07:28:58;25.70;99.90
20481;DHT22;10399;50.754;3.366;2022-08-25T07:31:26;25.80;99.90
20481;DHT22;10399;50.754;3.366;2022-08-25T07:33:56;25.90;99.90
20481;DHT22;10399;50.754;3.366;2022-08-25T07:36:42;26.10;99.90
20481;DHT22;10399;50.754;3.366;2022-08-25T07:39:10;26.30;99.90
20481;DHT22;10399;50.754;3.366;2022-08-25T07:41:40;26.30;99.90
20481;DHT22;10399;50.754;3.366;2022-08-25T07:44:08;26.50;99.90
20481;DHT22;10399;50.754;3.366;2022-08-25T07:46:36;26.50;99.90
20481;DHT22;10399;50.754;3.366;2022-08-25T07:49:03;26.60;99.90
20481;DHT22;10399;50.754;3.366;2022-08-25T07:51:43;26.60;99.90
20481;DHT22;10399;50.754;3.366;2022-08-25T07:54:30;26.80;99.90
20481;DHT22;10399;50.754;3.366;2022-08-25T07:57:02;27.10;99.90
20481;DHT22;10399;50.754;3.366;2022-08-25T07:59:29;27.30;99.90
20481;DHT22;10399;50.754;3.366;2022-08-25T08:02:09;27.50;99.90
20481;DHT22;10399;50.754;3.366;2022-08-25T08:04:46;27.60;99.90
20481;DHT22;10399;50.754;3.366;2022-08-25T08:07:20;27.80;99.90
20481;DHT22;10399;50.754;3.366;2022-08-25T08:09:49;28.00;99.90
20481;DHT22;10399;50.754;3.366;2022-08-25T08:12:37;28.10;99.90
20481;DHT22;10399;50.754;3.366;2022-08-25T08:15:05;28.30;99.90
20481;DHT22;10399;50.754;3.366;2022-08-25T08:17:37;28.40;99.90
20481;DHT22;10399;50.754;3.366;2022-08-25T08:20:05;28.50;99.90
20481;DHT22;10399;50.754;3.366;2022-08-25T08:22:39;28.70;99.90
20481;DHT22;10399;50.754;3.366;2022-08-25T08:25:08;28.90;99.90
20481;DHT22;10399;50.754;3.366;2022-08-25T08:27:39;29.00;99.90
20481;DHT22;10399;50.754;3.366;2022-08-25T08:30:09;29.20;99.90
20481;DHT22;10399;50.754;3.366;2022-08-25T08:32:36;29.40;99.90
20481;DHT22;10399;50.754;3.366;2022-08-25T08:35:23;29.60;99.90
20481;DHT22;10399;50.754;3.366;2022-08-25T08:37:50;29.70;99.90
20481;DHT22;10399;50.754;3.366;2022-08-25T08:40:20;29.90;99.90
20481;DHT22;10399;50.754;3.366;2022-08-25T08:43:04;29.90;99.90
20481;DHT22;10399;50.754;3.366;2022-08-25T08:45:51;29.90;99.90
20481;DHT22;10399;50.754;3.366;2022-08-25T08:48:38;30.10;99.90
20481;DHT22;10399;50.754;3.366;2022-08-25T08:51:22;30.20;99.90
20481;DHT22;10399;50.754;3.366;2022-08-25T08:54:13;30.20;99.90
20481;DHT22;10399;50.754;3.366;2022-08-25T08:56:47;30.50;99.90
20481;DHT22;10399;50.754;3.366;2022-08-25T08:59:19;30.80;99.90
20481;DHT22;10399;50.754;3.366;2022-08-25T09:01:58;30.80;99.90
20481;DHT22;10399;50.754;3.366;2022-08-25T09:04:46;31.00;99.90
20481;DHT22;10399;50.754;3.366;2022-08-25T09:07:21;31.10;99.90
20481;DHT22;10399;50.754;3.366;2022-08-25T09:09:50;31.30;99.90
20481;DHT22;10399;50.754;3.366;2022-08-25T09:12:39;31.70;99.90
20481;DHT22;10399;50.754;3.366;2022-08-25T09:21:42;32.40;99.90
20481;DHT22;10399;50.754;3.366;2022-08-25T09:30:14;33.00;99.90
20481;DHT22;10399;50.754;3.366;2022-08-25T09:32:53;33.10;99.90
20481;DHT22;10399;50.754;3.366;2022-08-25T09:35:39;33.30;99.90
20481;DHT22;10399;50.754;3.366;2022-08-25T09:38:10;33.60;99.80
20481;DHT22;10399;50.754;3.366;2022-08-25T09:40:58;33.50;99.30
20481;DHT22;10399;50.754;3.366;2022-08-25T09:43:36;33.70;98.80
20481;DHT22;10399;50.754;3.366;2022-08-25T09:46:11;33.80;97.70
20481;DHT22;10399;50.754;3.366;2022-08-25T09:48:51;34.20;97.50
20481;DHT22;10399;50.754;3.366;2022-08-25T09:51:29;34.20;96.60
20481;DHT22;10399;50.754;3.366;2022-08-25T09:56:59;34.30;94.60
20481;DHT22;10399;50.754;3.366;2022-08-25T09:59:34;34.30;93.90
20481;DHT22;10399;50.754;3.366;2022-08-25T10:02:37;34.40;94.40
20481;DHT22;10399;50.754;3.366;2022-08-25T10:04:59;34.50;93.50
20481;DHT22;10399;50.754;3.366;2022-08-25T10:07:54;34.50;92.90
20481;DHT22;10399;50.754;3.366;2022-08-25T10:12:59;34.30;91.90
20481;DHT22;10399;50.754;3.366;2022-08-25T10:15:34;34.20;92.70
20481;DHT22;10399;50.754;3.366;2022-08-25T10:18:21;34.00;92.40
20481;DHT22;10399;50.754;3.366;2022-08-25T10:21:12;34.00;92.80
20481;DHT22;10399;50.754;3.366;2022-08-25T10:23:48;33.90;94.20
20481;DHT22;10399;50.754;3.366;2022-08-25T10:26:27;33.70;95.30
20481;DHT22;10399;50.754;3.366;2022-08-25T10:32:15;33.40;96.70
20481;DHT22;10399;50.754;3.366;2022-08-25T10:34:49;33.00;97.00
20481;DHT22;10399;50.754;3.366;2022-08-25T10:42:58;33.30;97.30
20481;DHT22;10399;50.754;3.366;2022-08-25T10:45:29;33.30;97.30
20481;DHT22;10399;50.754;3.366;2022-08-25T10:56:22;33.30;97.20
20481;DHT22;10399;50.754;3.366;2022-08-25T11:01:42;33.70;97.00
20481;DHT22;10399;50.754;3.366;2022-08-25T11:04:30;33.70;96.80
20481;DHT22;10399;50.754;3.366;2022-08-25T11:07:24;33.90;98.30
20481;DHT22;10399;50.754;3.366;2022-08-25T11:09:59;34.50;99.80
20481;DHT22;10399;50.754;3.366;2022-08-25T11:12:30;34.60;99.90
20481;DHT22;10399;50.754;3.366;2022-08-25T11:15:23;34.30;99.90
20481;DHT22;10399;50.754;3.366;2022-08-25T11:17:56;34.30;99.90
20481;DHT22;10399;50.754;3.366;2022-08-25T11:20:35;34.40;99.90
20481;DHT22;10399;50.754;3.366;2022-08-25T11:25:42;34.50;99.90
20481;DHT22;10399;50.754;3.366;2022-08-25T11:28:42;34.50;99.90
20481;DHT22;10399;50.754;3.366;2022-08-25T11:31:13;34.90;99.90
20481;DHT22;10399;50.754;3.366;2022-08-25T11:33:42;34.50;99.90
20481;DHT22;10399;50.754;3.366;2022-08-25T11:36:30;34.80;99.90
20481;DHT22;10399;50.754;3.366;2022-08-25T11:47:11;35.20;99.90
20481;DHT22;10399;50.754;3.366;2022-08-25T11:50:08;35.40;99.90
20481;DHT22;10399;50.754;3.366;2022-08-25T11:53:18;35.80;99.90
20481;DHT22;10399;50.754;3.366;2022-08-25T11:56:02;36.30;99.90
20481;DHT22;10399;50.754;3.366;2022-08-25T11:58:41;36.50;99.90
20481;DHT22;10399;50.754;3.366;2022-08-25T12:10:20;37.30;99.90
20481;DHT22;10399;50.754;3.366;2022-08-25T12:15:20;38.00;98.50
20481;DHT22;10399;50.754;3.366;2022-08-25T12:37:18;37.60;98.80
20481;DHT22;10399;50.754;3.366;2022-08-25T12:47:42;37.90;98.90
20481;DHT22;10399;50.754;3.366;2022-08-25T12:53:27;38.00;98.30
20481;DHT22;10399;50.754;3.366;2022-08-25T12:56:02;38.40;97.00
20481;DHT22;10399;50.754;3.366;2022-08-25T12:59:11;38.50;97.00
20481;DHT22;10399;50.754;3.366;2022-08-25T13:18:38;37.70;98.50
20481;DHT22;10399;50.754;3.366;2022-08-25T13:21:15;37.80;97.50
20481;DHT22;10399;50.754;3.366;2022-08-25T13:23:46;37.90;97.70
20481;DHT22;10399;50.754;3.366;2022-08-25T13:26:30;38.00;98.20
20481;DHT22;10399;50.754;3.366;2022-08-25T13:31:34;37.40;99.00
20481;DHT22;10399;50.754;3.366;2022-08-25T13:34:15;37.30;99.70
20481;DHT22;10399;50.754;3.366;2022-08-25T13:36:47;37.40;99.90
20481;DHT22;10399;50.754;3.366;2022-08-25T13:39:34;37.20;99.90
20481;DHT22;10399;50.754;3.366;2022-08-25T13:42:21;36.70;99.90
20481;DHT22;10399;50.754;3.366;2022-08-25T13:44:54;35.90;99.90
20481;DHT22;10399;50.754;3.366;2022-08-25T13:47:38;36.10;99.90
20481;DHT22;10399;50.754;3.366;2022-08-25T13:53:01;35.80;99.90
20481;DHT22;10399;50.754;3.366;2022-08-25T13:55:35;36.00;99.90
20481;DHT22;10399;50.754;3.366;2022-08-25T13:58:20;36.10;99.90
20481;DHT22;10399;50.754;3.366;2022-08-25T14:07:08;35.70;99.90
20481;DHT22;10399;50.754;3.366;2022-08-25T14:09:57;35.50;99.90
20481;DHT22;10399;50.754;3.366;2022-08-25T14:14:59;35.40;99.90
20481;DHT22;10399;50.754;3.366;2022-08-25T14:17:26;35.60;99.90
20481;DHT22;10399;50.754;3.366;2022-08-25T14:20:24;35.70;99.90
20481;DHT22;10399;50.754;3.366;2022-08-25T14:22:57;35.50;99.90
20481;DHT22;10399;50.754;3.366;2022-08-25T14:25:28;35.70;99.90
20481;DHT22;10399;50.754;3.366;2022-08-25T14:28:02;35.50;99.90
20481;DHT22;10399;50.754;3.366;2022-08-25T14:30:46;35.30;99.90
20481;DHT22;10399;50.754;3.366;2022-08-25T14:33:19;34.40;99.90
20481;DHT22;10399;50.754;3.366;2022-08-25T14:35:49;34.40;99.90
20481;DHT22;10399;50.754;3.366;2022-08-25T14:38:20;34.10;99.90
20481;DHT22;10399;50.754;3.366;2022-08-25T14:40:48;33.60;99.90
20481;DHT22;10399;50.754;3.366;2022-08-25T14:43:22;33.00;99.90
20481;DHT22;10399;50.754;3.366;2022-08-25T14:45:50;32.20;99.90
20481;DHT22;10399;50.754;3.366;2022-08-25T14:48:27;32.20;99.90
20481;DHT22;10399;50.754;3.366;2022-08-25T14:50:57;32.60;99.90
20481;DHT22;10399;50.754;3.366;2022-08-25T14:53:26;32.60;99.90
20481;DHT22;10399;50.754;3.366;2022-08-25T14:55:55;32.50;99.90
20481;DHT22;10399;50.754;3.366;2022-08-25T14:58:25;32.30;99.90
20481;DHT22;10399;50.754;3.366;2022-08-25T15:00:59;32.20;99.90
20481;DHT22;10399;50.754;3.366;2022-08-25T15:03:38;32.10;99.90
20481;DHT22;10399;50.754;3.366;2022-08-25T15:06:09;32.00;99.90
20481;DHT22;10399;50.754;3.366;2022-08-25T15:08:37;32.00;99.90
20481;DHT22;10399;50.754;3.366;2022-08-25T15:11:23;31.90;99.90
20481;DHT22;10399;50.754;3.366;2022-08-25T15:13:52;31.80;99.90
20481;DHT22;10399;50.754;3.366;2022-08-25T15:16:50;31.70;99.90
20481;DHT22;10399;50.754;3.366;2022-08-25T15:19:21;31.40;99.90
20481;DHT22;10399;50.754;3.366;2022-08-25T15:21:49;31.60;99.90
20481;DHT22;10399;50.754;3.366;2022-08-25T15:24:18;31.60;99.90
20481;DHT22;10399;50.754;3.366;2022-08-25T15:26:54;31.60;99.90
20481;DHT22;10399;50.754;3.366;2022-08-25T15:29:24;31.90;99.90
20481;DHT22;10399;50.754;3.366;2022-08-25T15:31:53;32.00;99.90
20481;DHT22;10399;50.754;3.366;2022-08-25T15:34:20;32.20;99.90
20481;DHT22;10399;50.754;3.366;2022-08-25T15:36:47;32.10;99.90
20481;DHT22;10399;50.754;3.366;2022-08-25T15:39:15;31.90;99.90
20481;DHT22;10399;50.754;3.366;2022-08-25T15:41:45;31.70;99.90
20481;DHT22;10399;50.754;3.366;2022-08-25T15:44:15;31.50;99.90
20481;DHT22;10399;50.754;3.366;2022-08-25T15:46:42;31.50;99.90
20481;DHT22;10399;50.754;3.366;2022-08-25T15:49:15;31.10;99.90
20481;DHT22;10399;50.754;3.366;2022-08-25T15:51:52;30.80;99.90
20481;DHT22;10399;50.754;3.366;2022-08-25T15:54:22;30.70;99.90
20481;DHT22;10399;50.754;3.366;2022-08-25T15:56:52;30.50;99.90
20481;DHT22;10399;50.754;3.366;2022-08-25T15:59:20;30.50;99.90
20481;DHT22;10399;50.754;3.366;2022-08-25T16:01:48;30.40;99.90
20481;DHT22;10399;50.754;3.366;2022-08-25T16:04:21;30.30;99.90
20481;DHT22;10399;50.754;3.366;2022-08-25T16:06:49;30.30;99.90
20481;DHT22;10399;50.754;3.366;2022-08-25T16:09:18;30.40;99.90
20481;DHT22;10399;50.754;3.366;2022-08-25T16:11:49;30.30;99.90
20481;DHT22;10399;50.754;3.366;2022-08-25T16:14:23;30.30;99.90
20481;DHT22;10399;50.754;3.366;2022-08-25T16:16:50;30.40;99.90
20481;DHT22;10399;50.754;3.366;2022-08-25T16:19:25;30.30;99.90
20481;DHT22;10399;50.754;3.366;2022-08-25T16:21:52;30.20;99.90
20481;DHT22;10399;50.754;3.366;2022-08-25T16:24:19;30.20;99.90
20481;DHT22;10399;50.754;3.366;2022-08-25T16:26:46;30.20;99.90
20481;DHT22;10399;50.754;3.366;2022-08-25T16:29:18;30.10;99.90
20481;DHT22;10399;50.754;3.366;2022-08-25T16:31:45;30.00;99.90
20481;DHT22;10399;50.754;3.366;2022-08-25T16:34:20;29.70;99.90
20481;DHT22;10399;50.754;3.366;2022-08-25T16:36:50;29.70;99.90
20481;DHT22;10399;50.754;3.366;2022-08-25T16:39:22;29.80;99.90
20481;DHT22;10399;50.754;3.366;2022-08-25T16:41:50;29.60;99.90
20481;DHT22;10399;50.754;3.366;2022-08-25T16:44:18;29.50;99.90
20481;DHT22;10399;50.754;3.366;2022-08-25T16:46:49;29.50;99.90
20481;DHT22;10399;50.754;3.366;2022-08-25T16:49:21;29.40;99.90
20481;DHT22;10399;50.754;3.366;2022-08-25T16:51:51;29.50;99.90
20481;DHT22;10399;50.754;3.366;2022-08-25T16:54:23;29.30;99.90
20481;DHT22;10399;50.754;3.366;2022-08-25T16:57:09;29.20;99.90
20481;DHT22;10399;50.754;3.366;2022-08-25T16:59:36;29.30;99.90
20481;DHT22;10399;50.754;3.366;2022-08-25T17:02:03;29.30;99.90
20481;DHT22;10399;50.754;3.366;2022-08-25T17:04:30;29.00;99.90
20481;DHT22;10399;50.754;3.366;2022-08-25T17:06:59;28.90;99.90
20481;DHT22;10399;50.754;3.366;2022-08-25T17:09:27;28.90;99.90
20481;DHT22;10399;50.754;3.366;2022-08-25T17:11:55;28.70;99.90
20481;DHT22;10399;50.754;3.366;2022-08-25T17:14:23;28.70;99.90
20481;DHT22;10399;50.754;3.366;2022-08-25T17:16:51;28.70;99.90
20481;DHT22;10399;50.754;3.366;2022-08-25T17:19:21;28.70;99.90
20481;DHT22;10399;50.754;3.366;2022-08-25T17:21:50;28.70;99.90
20481;DHT22;10399;50.754;3.366;2022-08-25T17:24:18;28.70;99.90
20481;DHT22;10399;50.754;3.366;2022-08-25T17:26:46;28.60;99.90
20481;DHT22;10399;50.754;3.366;2022-08-25T17:29:18;28.50;99.90
20481;DHT22;10399;50.754;3.366;2022-08-25T17:31:45;28.60;99.90
20481;DHT22;10399;50.754;3.366;2022-08-25T17:34:14;28.40;99.90
20481;DHT22;10399;50.754;3.366;2022-08-25T17:36:47;28.20;99.90
20481;DHT22;10399;50.754;3.366;2022-08-25T17:39:14;28.10;99.90
20481;DHT22;10399;50.754;3.366;2022-08-25T17:41:44;28.10;99.90
20481;DHT22;10399;50.754;3.366;2022-08-25T17:44:12;28.00;99.90
20481;DHT22;10399;50.754;3.366;2022-08-25T17:46:41;27.60;99.90
20481;DHT22;10399;50.754;3.366;2022-08-25T17:49:14;27.40;99.90
20481;DHT22;10399;50.754;3.366;2022-08-25T17:51:42;27.50;99.90
20481;DHT22;10399;50.754;3.366;2022-08-25T17:54:11;27.40;99.90
20481;DHT22;10399;50.754;3.366;2022-08-25T17:56:38;27.50;99.90
20481;DHT22;10399;50.754;3.366;2022-08-25T17:59:05;27.40;99.90
20481;DHT22;10399;50.754;3.366;2022-08-25T18:01:36;27.40;99.90
20481;DHT22;10399;50.754;3.366;2022-08-25T18:04:08;27.40;99.90
20481;DHT22;10399;50.754;3.366;2022-08-25T18:06:42;27.10;99.90
20481;DHT22;10399;50.754;3.366;2022-08-25T18:09:10;27.00;99.90